Time;durP1;ratioP1;P1;durP2;ratioP2;P2;SDS_P1;SDS_P2;PMS_P1;PMS_P2;Temp;Humidity;BMP_temperature;BMP_pressure;BME280_temperature;BME280_humidity;BME280_pressure;Samples;Min_cycle;Max_cycle;Signal;HPM_P1;HPM_P2
2023/10/24 00:02:25;;;;;;;6.10;3.10;;;13.90;99.90;;;;;;5063147;28;20691;-60
2023/10/24 00:04:51;;;;;;;5.10;3.27;;;13.80;99.90;;;;;;5061443;28;20232;-61
2023/10/24 00:07:18;;;;;;;6.43;3.40;;;13.80;99.90;;;;;;5059575;28;20201;-60
2023/10/24 00:09:45;;;;;;;4.33;3.00;;;13.80;99.90;;;;;;5059232;28;20669;-60
2023/10/24 00:12:13;;;;;;;7.70;2.90;;;13.80;99.90;;;;;;5062789;28;20294;-60
2023/10/24 00:14:39;;;;;;;3.93;2.93;;;13.80;99.90;;;;;;5062592;28;20239;-61
2023/10/24 00:17:06;;;;;;;3.43;2.73;;;13.70;99.90;;;;;;5059713;28;20288;-60
2023/10/24 00:19:33;;;;;;;4.70;3.17;;;13.70;99.90;;;;;;5059037;28;20213;-60
2023/10/24 00:22:01;;;;;;;3.37;2.80;;;13.70;99.90;;;;;;5061126;28;20288;-61
2023/10/24 00:24:28;;;;;;;5.27;2.87;;;13.60;99.90;;;;;;5062874;28;20373;-60
2023/10/24 00:26:55;;;;;;;4.53;2.90;;;13.60;99.90;;;;;;5061449;28;20213;-61
2023/10/24 00:29:23;;;;;;;5.00;2.77;;;13.60;99.90;;;;;;5059347;28;20248;-61
2023/10/24 00:31:49;;;;;;;4.70;2.77;;;13.60;99.90;;;;;;5059315;28;20613;-60
2023/10/24 00:34:17;;;;;;;4.50;2.90;;;13.50;99.90;;;;;;5062409;28;20258;-60
2023/10/24 00:36:43;;;;;;;5.23;2.87;;;13.60;99.90;;;;;;5062382;28;20232;-60
2023/10/24 00:39:10;;;;;;;4.13;2.40;;;13.60;99.90;;;;;;5059075;28;20288;-60
2023/10/24 00:41:37;;;;;;;5.27;2.70;;;13.60;99.90;;;;;;5059151;28;20217;-61
2023/10/24 00:44:04;;;;;;;4.23;3.00;;;13.70;99.90;;;;;;5061598;28;20562;-61
2023/10/24 00:46:32;;;;;;;3.43;2.93;;;13.80;99.90;;;;;;5062365;28;20231;-60
2023/10/24 00:48:59;;;;;;;4.37;3.17;;;13.80;99.90;;;;;;5060550;28;20205;-61
2023/10/24 00:51:26;;;;;;;6.93;2.90;;;13.90;99.90;;;;;;5058878;28;20225;-61
2023/10/24 00:53:54;;;;;;;4.67;3.17;;;14.00;99.90;;;;;;5059849;28;20206;-61
2023/10/24 00:56:21;;;;;;;4.63;2.90;;;14.00;99.90;;;;;;5062276;28;20231;-61
2023/10/24 00:58:49;;;;;;;3.80;2.90;;;14.60;99.90;;;;;;5061970;28;20204;-61
2023/10/24 01:01:16;;;;;;;5.33;3.10;;;14.10;99.90;;;;;;5059149;28;20284;-61
2023/10/24 01:03:47;;;;;;;3.70;2.73;;;14.10;99.90;;;;;;5058852;28;20209;-60
2023/10/24 01:06:14;;;;;;;4.17;3.03;;;14.10;99.90;;;;;;5050793;28;20225;-61
2023/10/24 01:08:40;;;;;;;3.70;2.73;;;14.10;99.90;;;;;;5058935;28;20286;-59
2023/10/24 01:11:07;;;;;;;4.17;2.80;;;14.10;99.90;;;;;;5061431;28;20240;-60
2023/10/24 01:13:34;;;;;;;5.50;3.13;;;14.10;99.90;;;;;;5062258;28;20200;-59
2023/10/24 01:16:00;;;;;;;5.27;2.73;;;14.10;99.90;;;;;;5060267;28;20232;-60
2023/10/24 01:18:27;;;;;;;3.30;2.77;;;14.20;99.90;;;;;;5058590;28;20217;-60
2023/10/24 01:20:55;;;;;;;4.57;3.07;;;14.40;99.90;;;;;;5059496;28;20198;-59
2023/10/24 01:23:23;;;;;;;4.40;2.43;;;14.40;99.90;;;;;;5062100;28;20201;-61
2023/10/24 01:25:52;;;;;;;4.07;3.10;;;14.50;99.90;;;;;;5061553;28;20721;-60
2023/10/24 01:28:19;;;;;;;4.57;3.00;;;14.40;99.90;;;;;;5058784;28;20234;-59
2023/10/24 01:30:46;;;;;;;3.90;3.13;;;14.40;99.90;;;;;;5058460;28;20264;-59
2023/10/24 01:33:12;;;;;;;5.43;3.13;;;14.30;99.90;;;;;;5050584;28;20663;-59
2023/10/24 01:35:39;;;;;;;5.80;3.50;;;14.30;99.90;;;;;;5058748;28;20229;-60
2023/10/24 01:38:06;;;;;;;5.50;3.00;;;14.40;99.90;;;;;;5061069;28;20213;-60
2023/10/24 01:40:34;;;;;;;5.63;3.57;;;14.40;99.90;;;;;;5062008;28;20212;-60
2023/10/24 01:43:01;;;;;;;4.07;2.70;;;14.40;99.90;;;;;;5060202;28;20658;-60
2023/10/24 01:45:27;;;;;;;3.23;2.60;;;14.40;99.90;;;;;;5059007;28;20607;-60
2023/10/24 01:47:54;;;;;;;3.63;2.70;;;14.40;99.90;;;;;;5070420;28;20205;-59
2023/10/24 01:50:21;;;;;;;4.30;2.77;;;14.40;99.90;;;;;;5061911;28;20205;-59
2023/10/24 01:52:48;;;;;;;4.13;2.80;;;14.40;99.90;;;;;;5061827;28;20226;-60
2023/10/24 01:55:15;;;;;;;5.43;2.70;;;14.50;99.90;;;;;;5065240;28;20217;-60
2023/10/24 01:57:43;;;;;;;3.93;2.70;;;14.50;99.90;;;;;;5065646;28;20213;-60
2023/10/24 02:00:11;;;;;;;5.87;3.13;;;14.50;99.90;;;;;;5062001;28;20587;-60
2023/10/24 02:02:38;;;;;;;6.23;3.17;;;14.40;99.90;;;;;;5062080;28;20209;-60
2023/10/24 02:05:05;;;;;;;3.80;2.90;;;14.30;99.90;;;;;;5063896;28;20236;-60
2023/10/24 02:07:31;;;;;;;3.90;3.13;;;14.20;99.90;;;;;;5065213;28;20288;-59
2023/10/24 02:09:58;;;;;;;3.83;2.80;;;14.30;99.90;;;;;;5063718;28;20293;-59
2023/10/24 02:12:25;;;;;;;2.50;2.10;;;14.30;99.90;;;;;;5062017;28;20217;-60
2023/10/24 02:14:53;;;;;;;4.60;2.67;;;14.40;99.90;;;;;;5062218;28;20233;-59
2023/10/24 02:17:20;;;;;;;3.07;2.60;;;14.40;99.90;;;;;;5065331;28;20201;-60
2023/10/24 02:19:47;;;;;;;5.27;2.50;;;14.30;99.90;;;;;;5064596;28;20212;-60
2023/10/24 02:22:13;;;;;;;4.40;2.57;;;14.20;99.90;;;;;;5053147;28;20616;-60
2023/10/24 02:24:40;;;;;;;3.50;2.53;;;14.20;99.90;;;;;;5061632;28;20233;-60
2023/10/24 02:27:07;;;;;;;10.63;8.77;;;14.20;99.90;;;;;;5064077;28;20294;-60
2023/10/24 02:29:34;;;;;;;3.57;2.60;;;14.20;99.90;;;;;;5064681;28;20205;-59
2023/10/24 02:32:02;;;;;;;3.70;2.53;;;14.20;99.90;;;;;;5062864;28;20217;-60
2023/10/24 02:34:29;;;;;;;4.23;2.60;;;14.10;99.90;;;;;;5061069;28;20308;-60
2023/10/24 02:36:56;;;;;;;3.63;2.43;;;14.20;99.90;;;;;;5062053;28;20206;-59
2023/10/24 02:39:23;;;;;;;2.40;2.10;;;14.10;99.90;;;;;;5064652;28;20663;-61
2023/10/24 02:41:49;;;;;;;2.83;2.63;;;14.10;99.90;;;;;;5064257;28;20208;-61
2023/10/24 02:44:16;;;;;;;3.37;2.17;;;14.20;99.90;;;;;;5061411;28;20216;-59
2023/10/24 02:46:43;;;;;;;4.10;2.33;;;14.20;99.90;;;;;;5060765;28;20711;-61
2023/10/24 02:49:11;;;;;;;6.67;3.17;;;14.20;99.90;;;;;;5063718;28;20626;-60
2023/10/24 02:51:37;;;;;;;5.93;3.87;;;14.20;99.90;;;;;;5064132;28;20231;-61
2023/10/24 02:54:04;;;;;;;7.40;3.63;;;14.20;99.90;;;;;;5062322;28;20204;-61
2023/10/24 02:56:31;;;;;;;4.73;2.20;;;14.30;99.90;;;;;;5060673;28;20229;-60
2023/10/24 02:58:58;;;;;;;10.63;4.50;;;14.40;99.90;;;;;;5061895;28;20212;-60
2023/10/24 03:01:24;;;;;;;4.83;2.97;;;14.40;99.90;;;;;;5064245;28;20269;-59
2023/10/24 03:03:53;;;;;;;4.80;2.67;;;14.40;99.90;;;;;;5063805;28;20205;-60
2023/10/24 03:06:21;;;;;;;9.07;4.73;;;14.50;99.90;;;;;;5060346;28;20320;-60
2023/10/24 03:08:49;;;;;;;13.23;6.93;;;14.50;99.90;;;;;;5060774;28;20201;-59
2023/10/24 03:11:21;;;;;;;11.97;6.40;;;14.60;99.90;;;;;;5052263;28;20205;-60
2023/10/24 03:13:48;;;;;;;6.13;3.40;;;14.60;99.90;;;;;;5060770;28;20301;-60
2023/10/24 03:16:15;;;;;;;5.77;3.23;;;14.60;99.90;;;;;;5051992;28;20226;-60
2023/10/24 03:18:42;;;;;;;5.63;2.63;;;14.60;99.90;;;;;;5060301;28;20635;-60
2023/10/24 03:21:09;;;;;;;4.07;2.80;;;14.60;99.90;;;;;;5062994;28;20266;-59
2023/10/24 03:23:37;;;;;;;3.17;2.30;;;14.60;99.90;;;;;;5063683;28;20209;-60
2023/10/24 03:26:06;;;;;;;5.83;2.23;;;14.60;99.90;;;;;;5062028;28;20235;-60
2023/10/24 03:28:32;;;;;;;3.93;1.97;;;14.40;99.90;;;;;;5060195;28;20300;-60
2023/10/24 03:31:03;;;;;;;6.20;2.80;;;14.40;99.90;;;;;;5060894;28;20232;-60
2023/10/24 03:33:31;;;;;;;3.77;2.60;;;14.30;99.90;;;;;;5063671;28;20589;-59
2023/10/24 03:35:58;;;;;;;3.00;2.30;;;14.30;99.90;;;;;;5062237;28;20316;-60
2023/10/24 03:38:25;;;;;;;2.67;2.17;;;14.40;99.90;;;;;;5060072;28;20205;-59
2023/10/24 03:40:53;;;;;;;3.37;2.20;;;14.50;99.90;;;;;;5059837;28;20675;-61
2023/10/24 03:43:20;;;;;;;3.83;2.00;;;14.60;99.90;;;;;;5063307;28;20611;-61
2023/10/24 03:45:47;;;;;;;5.88;2.38;;;14.50;99.90;;;;;;5063234;28;20251;-61
2023/10/24 03:48:14;;;;;;;5.70;3.07;;;14.60;99.90;;;;;;5060297;28;20206;-60
2023/10/24 03:50:41;;;;;;;4.90;3.20;;;14.60;99.90;;;;;;5060003;28;20228;-60
2023/10/24 03:53:08;;;;;;;6.43;4.20;;;14.60;99.90;;;;;;5061946;28;20656;-60
2023/10/24 03:55:57;;;;;;;5.43;3.50;;;14.60;99.90;;;;;;5008316;28;20316;-60
2023/10/24 03:58:23;;;;;;;4.50;3.07;;;14.50;99.90;;;;;;5052838;28;20201;-60
2023/10/24 04:00:50;;;;;;;4.23;2.80;;;14.60;99.90;;;;;;5059773;28;20609;-60
2023/10/24 04:03:17;;;;;;;6.97;3.20;;;14.60;99.90;;;;;;5059669;28;20603;-60
2023/10/24 04:05:43;;;;;;;4.97;3.30;;;14.60;99.90;;;;;;5059991;28;20225;-61
2023/10/24 04:08:10;;;;;;;5.53;2.23;;;14.60;99.90;;;;;;5061663;28;20216;-61
2023/10/24 04:10:37;;;;;;;4.93;3.10;;;14.50;99.90;;;;;;5062706;28;20208;-62
2023/10/24 04:13:05;;;;;;;5.17;2.30;;;14.40;99.90;;;;;;5061352;28;20571;-62
2023/10/24 04:15:32;;;;;;;4.65;2.40;;;14.40;99.90;;;;;;5059483;28;20218;-61
2023/10/24 04:17:58;;;;;;;4.10;2.40;;;14.40;99.90;;;;;;5060113;28;20209;-61
2023/10/24 04:20:25;;;;;;;3.20;2.17;;;14.40;99.90;;;;;;5062836;28;20204;-61
2023/10/24 04:22:53;;;;;;;3.77;2.27;;;14.40;99.90;;;;;;5062772;28;20224;-60
2023/10/24 04:25:20;;;;;;;4.10;2.37;;;14.40;99.90;;;;;;5059047;28;20259;-61
2023/10/24 04:27:46;;;;;;;7.10;2.60;;;14.40;99.90;;;;;;5059341;28;20216;-60
2023/10/24 04:30:15;;;;;;;3.97;2.20;;;14.40;99.90;;;;;;5061818;28;20220;-62
2023/10/24 04:32:41;;;;;;;4.47;2.67;;;14.40;99.90;;;;;;5062657;28;20224;-62
2023/10/24 04:35:09;;;;;;;3.97;2.50;;;14.40;99.90;;;;;;5060412;28;20238;-62
2023/10/24 04:37:36;;;;;;;8.33;3.23;;;14.40;99.90;;;;;;5059074;28;20244;-62
2023/10/24 04:40:03;;;;;;;3.77;2.30;;;14.90;99.90;;;;;;5060429;28;20217;-62
2023/10/24 04:42:29;;;;;;;4.53;2.27;;;14.40;99.90;;;;;;5062374;28;20686;-61
2023/10/24 04:44:57;;;;;;;4.40;2.33;;;14.40;99.90;;;;;;5061862;28;20229;-62
2023/10/24 04:47:25;;;;;;;6.43;2.53;;;14.50;99.90;;;;;;5059006;28;20232;-62
2023/10/24 04:49:52;;;;;;;5.50;2.50;;;14.50;99.90;;;;;;5058823;28;20240;-61
2023/10/24 04:52:18;;;;;;;4.57;2.67;;;14.50;99.90;;;;;;5050468;28;20213;-63
2023/10/24 04:54:45;;;;;;;3.93;2.30;;;14.50;99.90;;;;;;5058699;28;20236;-61
2023/10/24 04:57:12;;;;;;;4.90;2.13;;;14.50;99.90;;;;;;5067111;28;20292;-64
2023/10/24 04:59:38;;;;;;;5.43;2.40;;;14.60;99.90;;;;;;5058930;28;20303;-61
2023/10/24 05:02:05;;;;;;;2.80;2.10;;;14.50;99.90;;;;;;5060526;28;20209;-61
2023/10/24 05:04:33;;;;;;;3.00;2.07;;;14.50;99.90;;;;;;5061715;28;20236;-62
2023/10/24 05:07:01;;;;;;;3.27;2.20;;;14.40;99.90;;;;;;5060768;28;20213;-62
2023/10/24 05:09:28;;;;;;;3.77;2.07;;;14.40;99.90;;;;;;5058813;28;20625;-61
2023/10/24 05:11:54;;;;;;;3.88;2.30;;;14.30;99.90;;;;;;5058569;28;20206;-62
2023/10/24 05:14:21;;;;;;;7.20;2.50;;;14.20;99.90;;;;;;5061833;28;20224;-62
2023/10/24 05:16:48;;;;;;;3.67;2.20;;;14.10;99.90;;;;;;5062184;28;20215;-62
2023/10/24 05:19:14;;;;;;;5.20;3.03;;;14.20;99.90;;;;;;5058787;28;20197;-62
2023/10/24 05:21:42;;;;;;;4.60;2.93;;;14.40;99.90;;;;;;5060971;28;20679;-62
2023/10/24 05:24:10;;;;;;;8.03;4.37;;;14.40;99.90;;;;;;5064596;28;20683;-62
2023/10/24 05:26:36;;;;;;;4.40;3.13;;;14.50;99.90;;;;;;5066065;28;20224;-62
2023/10/24 05:29:03;;;;;;;5.47;3.60;;;14.70;99.90;;;;;;5064607;28;20263;-62
2023/10/24 05:31:30;;;;;;;5.97;3.10;;;14.60;99.90;;;;;;5062244;28;20202;-62
2023/10/24 05:33:57;;;;;;;4.13;2.60;;;14.60;99.90;;;;;;5062500;28;20229;-61
2023/10/24 05:36:23;;;;;;;6.30;2.80;;;14.60;99.90;;;;;;5065712;28;20603;-62
2023/10/24 05:38:51;;;;;;;7.87;3.50;;;14.70;99.90;;;;;;5065885;28;20205;-61
2023/10/24 05:41:18;;;;;;;5.43;3.10;;;14.70;99.90;;;;;;5062063;28;20202;-62
2023/10/24 05:43:45;;;;;;;6.67;2.93;;;14.60;99.90;;;;;;5062155;28;20667;-62
2023/10/24 05:46:11;;;;;;;6.50;4.23;;;14.60;99.90;;;;;;5064293;28;20232;-63
2023/10/24 05:48:39;;;;;;;9.27;4.47;;;14.60;99.90;;;;;;5065290;28;20686;-61
2023/10/24 05:51:09;;;;;;;7.90;3.30;;;14.60;99.90;;;;;;5063722;28;20232;-61
2023/10/24 05:53:36;;;;;;;4.70;3.07;;;14.60;99.90;;;;;;5062211;28;20253;-61
2023/10/24 05:56:04;;;;;;;7.00;2.90;;;14.60;99.90;;;;;;5062948;28;20229;-64
2023/10/24 05:58:31;;;;;;;8.38;3.20;;;14.70;99.90;;;;;;5065413;28;20216;-63
2023/10/24 06:00:58;;;;;;;5.27;3.23;;;14.70;99.90;;;;;;5064385;28;20280;-61
2023/10/24 06:03:26;;;;;;;8.93;3.25;;;14.60;99.90;;;;;;5061992;28;20201;-62
2023/10/24 06:05:53;;;;;;;5.43;3.37;;;14.60;99.90;;;;;;5061834;28;20711;-61
2023/10/24 06:08:19;;;;;;;7.40;4.40;;;14.60;99.90;;;;;;5064991;28;20233;-62
2023/10/24 06:10:55;;;;;;;6.80;3.17;;;14.60;99.90;;;;;;5065010;28;20282;-62
2023/10/24 06:13:23;;;;;;;5.53;2.70;;;14.60;99.90;;;;;;5053312;28;20707;-62
2023/10/24 06:15:49;;;;;;;7.70;3.33;;;14.60;99.90;;;;;;5061986;28;20229;-62
2023/10/24 06:18:16;;;;;;;7.43;3.10;;;14.60;99.90;;;;;;5064811;28;20205;-62
2023/10/24 06:20:43;;;;;;;5.00;2.93;;;14.70;99.90;;;;;;5064818;28;20292;-62
2023/10/24 06:23:10;;;;;;;6.50;3.73;;;14.70;99.90;;;;;;5062919;28;20205;-61
2023/10/24 06:25:38;;;;;;;7.90;3.00;;;14.80;99.90;;;;;;5061542;28;20279;-62
2023/10/24 06:28:04;;;;;;;8.53;2.90;;;14.80;99.90;;;;;;5062315;28;20205;-62
2023/10/24 06:30:33;;;;;;;6.17;2.50;;;14.80;99.90;;;;;;5064881;28;20254;-62
2023/10/24 06:32:59;;;;;;;5.03;2.97;;;14.90;99.90;;;;;;5063402;28;20221;-61
2023/10/24 06:35:26;;;;;;;7.40;2.70;;;14.90;99.90;;;;;;5061399;28;20230;-62
2023/10/24 06:37:53;;;;;;;5.80;3.10;;;14.90;99.90;;;;;;5060946;28;20583;-61
2023/10/24 06:40:20;;;;;;;9.18;2.90;;;15.00;99.90;;;;;;5064153;28;20295;-62
2023/10/24 06:42:47;;;;;;;5.37;2.50;;;15.00;99.90;;;;;;5064539;28;20208;-63
2023/10/24 06:45:15;;;;;;;4.27;2.43;;;15.00;99.90;;;;;;5062202;28;20229;-62
2023/10/24 06:47:43;;;;;;;6.50;2.50;;;15.00;99.90;;;;;;5060947;28;20624;-61
2023/10/24 06:50:10;;;;;;;10.77;2.63;;;15.00;99.90;;;;;;5062456;28;20205;-61
2023/10/24 06:52:38;;;;;;;4.00;2.37;;;15.00;99.90;;;;;;5064390;28;20239;-60
2023/10/24 06:55:05;;;;;;;4.63;2.73;;;15.00;99.90;;;;;;5062820;28;20233;-64
2023/10/24 06:57:32;;;;;;;4.83;2.80;;;15.00;99.90;;;;;;5061004;28;20297;-62
2023/10/24 06:59:59;;;;;;;6.33;2.97;;;15.00;99.90;;;;;;5061166;28;20220;-62
2023/10/24 07:02:25;;;;;;;5.93;3.10;;;14.90;99.90;;;;;;5064104;28;20208;-60
2023/10/24 07:04:53;;;;;;;3.87;2.60;;;15.00;99.90;;;;;;5064173;28;20253;-61
2023/10/24 07:07:20;;;;;;;5.17;2.47;;;15.00;99.90;;;;;;5060595;28;20620;-61
2023/10/24 07:09:47;;;;;;;4.80;2.43;;;15.00;99.90;;;;;;5060690;28;20205;-61
2023/10/24 07:12:13;;;;;;;4.40;2.53;;;15.10;99.90;;;;;;5062750;28;20213;-61
2023/10/24 07:14:40;;;;;;;4.80;2.65;;;15.10;99.90;;;;;;5063782;28;20232;-61
2023/10/24 07:17:07;;;;;;;4.23;2.60;;;15.10;99.90;;;;;;5062490;28;20208;-61
2023/10/24 07:19:34;;;;;;;4.43;2.40;;;15.20;99.90;;;;;;5060489;28;20205;-64
2023/10/24 07:22:02;;;;;;;4.90;3.43;;;15.20;99.90;;;;;;5060796;28;20202;-66
2023/10/24 07:24:29;;;;;;;5.93;3.13;;;14.80;99.90;;;;;;5063710;28;20201;-63
2023/10/24 07:26:55;;;;;;;6.10;2.60;;;15.10;99.90;;;;;;5063441;28;20828;-68
2023/10/24 07:29:23;;;;;;;6.85;2.55;;;14.80;99.90;;;;;;5060404;28;20204;-62
2023/10/24 07:31:49;;;;;;;5.93;2.88;;;14.70;99.90;;;;;;5060037;28;20205;-64
2023/10/24 07:34:16;;;;;;;6.07;2.80;;;14.70;99.90;;;;;;5062575;28;20225;-61
2023/10/24 07:36:43;;;;;;;6.63;3.30;;;14.80;99.90;;;;;;5063425;28;20728;-62
2023/10/24 07:39:14;;;;;;;3.60;2.80;;;14.90;99.90;;;;;;5062080;28;20205;-62
2023/10/24 07:41:40;;;;;;;4.63;2.67;;;15.00;99.90;;;;;;5060281;28;20205;-62
2023/10/24 07:44:07;;;;;;;8.88;2.88;;;15.10;99.90;;;;;;5060297;28;20210;-62
2023/10/24 07:46:34;;;;;;;8.98;3.72;;;15.20;99.90;;;;;;5063439;28;20231;-62
2023/10/24 07:49:01;;;;;;;6.33;3.53;;;15.20;99.90;;;;;;5063417;28;20209;-62
2023/10/24 07:51:31;;;;;;;9.67;2.80;;;15.20;99.90;;;;;;5059833;28;20213;-62
2023/10/24 07:53:58;;;;;;;6.28;3.15;;;15.30;99.90;;;;;;5060162;28;20612;-62
2023/10/24 07:56:26;;;;;;;4.03;2.88;;;15.30;99.90;;;;;;5051787;28;20225;-62
2023/10/24 07:58:53;;;;;;;4.82;3.20;;;15.30;99.90;;;;;;5059722;28;20213;-62
2023/10/24 08:01:19;;;;;;;4.18;2.95;;;15.30;99.90;;;;;;5062271;28;20273;-63
2023/10/24 08:03:46;;;;;;;5.97;3.08;;;15.30;99.90;;;;;;5063169;28;20212;-63
2023/10/24 08:06:13;;;;;;;4.95;2.75;;;15.30;99.90;;;;;;5060618;28;20311;-62
2023/10/24 08:08:42;;;;;;;6.78;3.10;;;15.50;99.90;;;;;;5059440;28;20646;-62
2023/10/24 08:11:10;;;;;;;7.23;3.10;;;15.50;99.90;;;;;;5060583;28;20707;-62
2023/10/24 08:13:38;;;;;;;5.88;3.25;;;15.60;99.90;;;;;;5062678;28;20232;-62
2023/10/24 08:16:05;;;;;;;6.18;3.15;;;15.60;99.90;;;;;;5061899;28;20231;-63
2023/10/24 08:18:34;;;;;;;5.50;2.78;;;15.60;99.90;;;;;;5059451;28;20231;-62
2023/10/24 08:21:01;;;;;;;6.57;3.42;;;15.60;99.90;;;;;;5059343;28;20206;-62
2023/10/24 08:23:29;;;;;;;9.50;3.77;;;15.70;99.90;;;;;;5062707;28;20197;-62
2023/10/24 08:25:56;;;;;;;8.60;3.53;;;15.70;99.90;;;;;;5062611;28;20581;-62
2023/10/24 08:28:23;;;;;;;4.60;3.13;;;15.70;99.90;;;;;;5059247;28;20288;-62
2023/10/24 08:30:50;;;;;;;7.00;3.07;;;15.70;99.90;;;;;;5059033;28;20213;-62
2023/10/24 08:33:19;;;;;;;7.05;3.05;;;15.70;99.90;;;;;;5061203;28;20652;-62
2023/10/24 08:35:46;;;;;;;6.13;3.50;;;15.70;99.90;;;;;;5062683;28;20259;-62
2023/10/24 08:38:13;;;;;;;10.00;4.10;;;15.70;99.90;;;;;;5060633;28;20205;-62
2023/10/24 08:40:41;;;;;;;6.13;3.83;;;15.70;99.90;;;;;;5058954;28;20209;-62
2023/10/24 08:43:08;;;;;;;7.80;3.80;;;15.70;99.90;;;;;;5059929;28;20667;-62
2023/10/24 08:45:36;;;;;;;6.05;4.40;;;15.70;99.90;;;;;;5062127;28;20706;-62
2023/10/24 08:48:05;;;;;;;5.35;3.80;;;15.70;99.90;;;;;;5062032;28;20201;-62
2023/10/24 08:50:32;;;;;;;6.63;3.92;;;15.70;99.90;;;;;;5058799;28;20202;-62
2023/10/24 08:52:59;;;;;;;6.82;3.70;;;15.80;99.90;;;;;;5058876;28;20240;-62
2023/10/24 08:55:27;;;;;;;5.63;3.70;;;15.80;99.90;;;;;;5054748;28;20228;-64
2023/10/24 08:57:55;;;;;;;5.03;3.37;;;15.70;99.90;;;;;;5065469;28;20205;-61
2023/10/24 09:00:22;;;;;;;5.93;3.00;;;15.70;99.90;;;;;;5068130;28;20299;-60
2023/10/24 09:02:49;;;;;;;5.73;3.17;;;15.70;99.90;;;;;;5069149;28;20204;-62
2023/10/24 09:05:18;;;;;;;3.90;3.17;;;15.80;99.90;;;;;;5066614;28;20252;-61
2023/10/24 09:07:45;;;;;;;5.40;3.50;;;15.80;99.90;;;;;;5065309;28;20207;-62
2023/10/24 09:10:12;;;;;;;7.25;3.70;;;15.80;99.90;;;;;;5066658;28;20736;-62
2023/10/24 09:12:39;;;;;;;6.27;3.30;;;15.80;99.90;;;;;;5068590;28;20204;-63
2023/10/24 09:15:09;;;;;;;6.28;4.20;;;15.80;99.90;;;;;;5068087;28;20554;-64
2023/10/24 09:17:37;;;;;;;5.85;3.60;;;15.80;99.90;;;;;;5065316;28;20661;-63
2023/10/24 09:20:04;;;;;;;6.93;3.90;;;15.80;99.90;;;;;;5065523;28;20585;-62
2023/10/24 09:22:34;;;;;;;5.80;3.40;;;15.70;99.90;;;;;;5068782;28;20228;-62
2023/10/24 09:25:03;;;;;;;5.67;3.50;;;15.50;99.90;;;;;;5068509;28;20232;-61
2023/10/24 09:27:29;;;;;;;8.45;3.20;;;15.40;99.90;;;;;;5065128;28;20201;-62
2023/10/24 09:29:56;;;;;;;7.20;3.33;;;15.30;99.90;;;;;;5065285;28;20209;-61
2023/10/24 09:32:23;;;;;;;5.55;3.78;;;15.20;99.90;;;;;;5068442;28;20200;-62
2023/10/24 09:34:50;;;;;;;5.77;3.70;;;15.20;99.90;;;;;;5068853;28;20228;-62
2023/10/24 09:37:16;;;;;;;10.03;4.30;;;15.20;99.90;;;;;;5066677;28;20216;-61
2023/10/24 09:39:58;;;;;;;7.90;3.77;;;15.20;99.90;;;;;;5065439;28;20237;-62
2023/10/24 09:42:26;;;;;;;5.43;3.87;;;15.20;99.90;;;;;;5068399;28;20204;-61
2023/10/24 09:44:55;;;;;;;7.70;4.47;;;15.30;99.90;;;;;;5069218;28;20228;-62
2023/10/24 09:47:23;;;;;;;7.73;4.00;;;15.30;99.90;;;;;;5065803;28;20209;-63
2023/10/24 09:49:51;;;;;;;6.53;3.73;;;15.30;99.90;;;;;;5064835;28;20208;-63
2023/10/24 09:52:19;;;;;;;7.43;4.10;;;15.40;99.90;;;;;;5067093;28;20296;-64
2023/10/24 09:54:47;;;;;;;5.57;3.87;;;15.50;99.90;;;;;;5068651;28;20224;-61
2023/10/24 09:57:18;;;;;;;7.17;3.80;;;15.50;99.90;;;;;;5066548;28;20345;-62
2023/10/24 09:59:46;;;;;;;6.53;3.80;;;15.50;99.90;;;;;;5064875;28;20206;-62
2023/10/24 10:02:13;;;;;;;6.13;3.80;;;15.50;99.90;;;;;;5066436;28;20205;-62
2023/10/24 10:04:41;;;;;;;6.00;3.87;;;15.50;99.90;;;;;;5068039;28;20274;-62
2023/10/24 10:07:10;;;;;;;8.13;3.80;;;15.50;99.90;;;;;;5065258;28;20201;-62
2023/10/24 10:09:39;;;;;;;7.22;5.45;;;15.60;99.90;;;;;;5061779;28;20210;-62
2023/10/24 10:12:08;;;;;;;6.03;3.57;;;15.70;99.90;;;;;;5062333;28;20263;-62
2023/10/24 10:14:46;;;;;;;8.48;3.88;;;15.80;99.90;;;;;;5064884;28;20217;-62
2023/10/24 10:17:21;;;;;;;7.32;4.10;;;15.90;99.90;;;;;;5063533;28;20228;-62
2023/10/24 10:20:12;;;;;;;7.55;3.58;;;16.10;99.90;;;;;;5061645;28;20201;-62
2023/10/24 10:22:56;;;;;;;10.75;3.63;;;16.20;99.90;;;;;;5052888;28;20213;-62
2023/10/24 10:25:52;;;;;;;5.15;3.67;;;16.30;99.90;;;;;;5064281;28;20236;-62
2023/10/24 10:28:31;;;;;;;6.72;3.38;;;16.30;99.90;;;;;;5062533;28;20201;-65
2023/10/24 10:31:07;;;;;;;5.55;3.70;;;16.40;99.90;;;;;;5061168;28;20271;-63
2023/10/24 10:33:34;;;;;;;7.25;4.40;;;16.40;99.90;;;;;;5054028;28;20205;-63
2023/10/24 10:36:04;;;;;;;7.90;5.10;;;16.40;99.90;;;;;;5061050;28;20232;-63
2023/10/24 10:38:41;;;;;;;6.40;3.97;;;16.50;99.90;;;;;;5053078;28;20289;-62
2023/10/24 10:41:38;;;;;;;6.20;4.30;;;16.50;99.90;;;;;;5061447;28;20697;-62
2023/10/24 10:44:41;;;;;;;5.95;3.38;;;16.60;99.90;;;;;;5064103;28;20205;-62
2023/10/24 10:47:13;;;;;;;5.35;3.70;;;16.60;99.90;;;;;;5060555;28;20730;-59
2023/10/24 10:49:44;;;;;;;5.82;3.45;;;16.60;99.90;;;;;;5060768;28;20229;-59
2023/10/24 10:52:32;;;;;;;5.50;3.38;;;16.60;99.90;;;;;;5061847;28;20305;-61
2023/10/24 10:55:13;;;;;;;8.15;3.63;;;16.60;99.90;;;;;;5060304;28;20342;-61
2023/10/24 10:57:55;;;;;;;6.85;4.00;;;16.60;99.90;;;;;;5053999;28;20233;-60
2023/10/24 11:00:29;;;;;;;5.72;3.78;;;16.60;99.90;;;;;;5062682;28;20209;-59
2023/10/24 11:03:10;;;;;;;5.03;3.92;;;16.60;99.90;;;;;;5064402;28;20207;-60
2023/10/24 11:05:50;;;;;;;5.68;3.53;;;16.60;99.90;;;;;;5053607;28;20233;-59
2023/10/24 11:08:22;;;;;;;6.60;3.33;;;16.60;99.90;;;;;;5062690;28;20214;-59
2023/10/24 11:11:00;;;;;;;5.70;4.00;;;16.70;99.90;;;;;;5063931;28;20216;-59
2023/10/24 11:13:38;;;;;;;5.30;3.63;;;16.70;99.90;;;;;;5060534;28;20202;-59
2023/10/24 11:16:06;;;;;;;5.80;3.72;;;16.70;99.90;;;;;;5060547;28;20225;-59
2023/10/24 11:18:36;;;;;;;6.43;3.40;;;16.70;99.90;;;;;;5060617;28;20300;-58
2023/10/24 11:21:04;;;;;;;6.00;3.70;;;16.70;99.90;;;;;;5062816;28;20534;-59
2023/10/24 11:23:32;;;;;;;8.40;4.55;;;16.70;99.90;;;;;;5049545;28;20454;-60
2023/10/24 11:25:59;;;;;;;7.28;4.45;;;16.70;99.90;;;;;;5047761;28;20411;-59
2023/10/24 11:28:27;;;;;;;8.57;4.72;;;16.70;99.90;;;;;;5049140;28;20214;-60
2023/10/24 11:30:55;;;;;;;5.20;4.00;;;16.70;99.90;;;;;;5049822;28;20725;-62
2023/10/24 11:33:21;;;;;;;6.68;3.85;;;16.70;99.90;;;;;;5051570;28;20209;-62
2023/10/24 11:35:50;;;;;;;6.38;3.70;;;16.70;99.90;;;;;;5049250;28;20226;-63
2023/10/24 11:38:16;;;;;;;4.72;3.30;;;16.70;99.90;;;;;;5059528;28;20712;-65
2023/10/24 11:40:46;;;;;;;7.95;3.97;;;16.70;99.90;;;;;;5057312;28;20600;-62
2023/10/24 11:43:13;;;;;;;7.32;3.30;;;16.60;99.90;;;;;;5060782;28;20297;-59
2023/10/24 11:45:41;;;;;;;6.57;3.03;;;16.50;99.90;;;;;;5063609;28;20312;-62
2023/10/24 11:48:08;;;;;;;5.53;3.10;;;16.50;99.90;;;;;;5058842;28;20213;-60
2023/10/24 11:50:43;;;;;;;6.72;3.13;;;16.30;99.90;;;;;;5063520;28;20209;-68
2023/10/24 11:53:11;;;;;;;5.22;3.75;;;16.20;99.90;;;;;;5062733;28;20249;-59
2023/10/24 11:55:39;;;;;;;5.00;3.92;;;16.20;99.90;;;;;;5051390;28;20452;-58
2023/10/24 11:58:11;;;;;;;7.20;4.50;;;16.20;99.90;;;;;;5059622;28;20206;-59
2023/10/24 12:04:01;;;;;;;4.95;3.28;;;16.30;99.90;;;;;;5053964;28;20196;-61
2023/10/24 12:06:28;;;;;;;6.65;3.70;;;16.30;99.90;;;;;;5059611;28;20225;-60
2023/10/24 12:08:57;;;;;;;6.30;3.72;;;16.30;99.90;;;;;;5059580;28;20213;-60
2023/10/24 12:11:24;;;;;;;5.22;3.63;;;16.30;99.90;;;;;;5061819;28;20210;-63
2023/10/24 12:13:51;;;;;;;5.32;3.60;;;16.30;99.90;;;;;;5062917;28;20201;-58
2023/10/24 12:16:18;;;;;;;5.05;3.47;;;16.30;99.90;;;;;;5061061;28;20232;-59
2023/10/24 12:18:44;;;;;;;4.40;3.28;;;16.40;99.90;;;;;;5059370;28;20255;-59
2023/10/24 12:21:13;;;;;;;4.28;3.63;;;16.30;99.90;;;;;;5059529;28;20708;-59
2023/10/24 12:23:40;;;;;;;4.47;3.17;;;16.30;99.90;;;;;;5062871;28;20204;-59
2023/10/24 12:26:08;;;;;;;5.57;3.75;;;16.30;99.90;;;;;;5062644;28;20225;-59
2023/10/24 12:28:36;;;;;;;4.68;3.67;;;16.30;99.90;;;;;;5059413;28;20213;-60
2023/10/24 12:31:03;;;;;;;5.07;3.30;;;16.30;99.90;;;;;;5058816;28;20700;-59
2023/10/24 12:33:30;;;;;;;4.30;3.00;;;16.30;99.90;;;;;;5062399;28;20314;-58
2023/10/24 12:35:57;;;;;;;4.13;3.13;;;16.20;99.90;;;;;;5062329;28;20615;-59
2023/10/24 12:38:23;;;;;;;4.70;2.88;;;16.20;99.90;;;;;;5060303;28;20217;-57
2023/10/24 12:40:50;;;;;;;8.33;3.83;;;16.20;99.90;;;;;;5058990;28;20216;-60
2023/10/24 12:43:18;;;;;;;5.35;3.33;;;16.10;99.90;;;;;;5060617;28;20206;-60
2023/10/24 12:45:45;;;;;;;4.22;3.42;;;16.20;99.90;;;;;;5062762;28;20281;-59
2023/10/24 12:48:13;;;;;;;4.10;3.70;;;16.10;99.90;;;;;;5061948;28;20209;-59
2023/10/24 12:50:40;;;;;;;5.63;3.65;;;16.20;99.90;;;;;;5059138;28;20201;-59
2023/10/24 12:53:07;;;;;;;8.10;4.97;;;16.10;99.90;;;;;;5059442;28;20208;-59
2023/10/24 12:55:34;;;;;;;6.15;5.10;;;16.10;99.90;;;;;;5051163;28;20225;-59